METAR Data
IDs: Format: Raw Decoded Include TAF

Data at: 0230 UTC 05 Jun 2020

KMCI 050153Z 17006KT 10SM CLR 25/22 A2975 RMK AO2 SLP064 T02500217 $
KMCI 050053Z 18004KT 10SM CLR 28/23 A2975 RMK AO2 SLP064 T02780233 $
KMCI 042353Z 20005KT 10SM CLR 30/23 A2976 RMK AO2 SLP067 T03000228 10306 20278 56009 $
KMCI 042253Z 19008KT 10SM CLR 31/22 A2977 RMK AO2 SLP068 T03060222 $
KMCI 042153Z 18006KT 10SM FEW075 SCT180 31/21 A2978 RMK AO2 SLP072 TCU DSNT S T03060211 $
KMCI 042053Z 15004KT 10SM FEW045 FEW170 30/21 A2979 RMK AO2 SLP077 TCU DSNT S T03000206 56009 $
KMCI 041953Z 17004KT 10SM FEW170 29/22 A2980 RMK AO2 SLP079 T02940217 $
KMCI 041853Z 20005KT 10SM FEW170 29/21 A2981 RMK AO2 SLP082 T02890211 $
KMCI 041753Z 22007KT 9SM FEW170 28/21 A2982 RMK AO2 SLP086 T02780211 10278 20183 56003 $
KMCI 041653Z 22007KT 10SM SCT170 26/21 A2982 RMK AO2 SLP087 T02610206 $
KMCI 041553Z VRB05KT 10SM SCT170 24/20 A2982 RMK AO2 SLP085 T02440200 $
KMCI 041453Z 16007KT 10SM SCT220 23/19 A2983 RMK AO2 SLP089 T02330194 50000 $
KMCI 041353Z 15006KT 10SM FEW140 SCT220 22/18 A2983 RMK AO2 SLP092 TCU DSNT SE T02170183 $
KMCI 041253Z 16007KT 10SM FEW055 SCT140 SCT220 19/18 A2983 RMK AO2 SLP090 TCU DSNT SE T01940183 $
KMCI 041153Z 17008KT 10SM FEW110 BKN150 18/18 A2983 RMK AO2 SLP090 60021 70021 T01830178 10256 20183 51013
KMCI 041053Z 16011KT 10SM FEW110 OVC150 19/18 A2983 RMK AO2 SLP089 T01890183
KMCI 040953Z 16009KT 10SM SCT110 OVC150 19/18 A2982 RMK AO2 RAE19 TSE09 SLP085 P0003 T01940183
KMCI 040912Z 16009KT 10SM -RA OVC110 19/19 A2977 RMK AO2 TSE09 P0003 T01890189
KMCI 040853Z 09011KT 7SM TSRA SCT080CB OVC100 19/18 A2979 RMK AO2 LTG DSNT NE AND S AND NW TSE46B49 PRESFR SLP076 TS W MOV SE P0015 60018 T01940183 50009
KMCI 040753Z 04009KT 10SM -RA SCT110 OVC150 20/18 A2985 RMK AO2 PK WND 32031/0701 WSHFT 0640 LTG DSNT ALQDS TSB0658E19 SLP097 P0002 T02000183
KMCI 040721Z 30011G24KT 10SM -RA BKN065 OVC080 20/18 A2976 RMK AO2 PK WND 32031/0701 WSHFT 0640 LTG DSNT ALQDS TSB0658E19 P0001 T02000178
KMCI 040658Z 31018G27KT 10SM -TSRA SCT040CB OVC060 21/17 A2978 RMK AO2 PK WND 31027/0658 WSHFT 0640 LTG DSNT ALQDS TSB58 TS S-NW MOV SE P0000 T02060172
KMCI 040656Z 30019G29KT 10SM VCTS -RA FEW040 BKN060 21/17 A2978 RMK AO2 PK WND 29027/0655 WSHFT 0640 LTG DSNT ALQDS P0000 T02060172
KMCI 040653Z 31016G32KT 8SM -RA SCT040 BKN055 OVC065 21/17 A2979 RMK AO2 PK WND 33047/0639 WSHFT 0638 LTG DSNT ALQDS RAB41 SLP074 P0001 T02060172
KMCI 040646Z 31021G47KT 8SM -RA SQ SCT040 BKN060 21/18 A2980 RMK AO2 PK WND 33047/0639 LTG DSNT ALQDS RAB41 P0000 T02110178
KMCI 040553Z 21005KT 10SM BKN200 24/22 A2976 RMK AO2 SLP065 LTG DSNT NW T02440217 10311 20244 403280222 58004
KMCI 040453Z 23005KT 10SM CLR 26/22 A2976 RMK AO2 SLP065 T02610222
KMCI 040353Z 24005KT 10SM CLR 27/22 A2978 RMK AO2 SLP071 T02670222
KMCI 040253Z 23005KT 10SM SCT250 28/22 A2977 RMK AO2 SLP069 T02830222 53001
KMCI 040153Z 20004KT 10SM FEW080 SCT250 28/23 A2977 RMK AO2 SLP066 T02780228
KMCI 040053Z 24004KT 10SM FEW100 FEW250 30/23 A2977 RMK AO2 SLP066 T03000228 $
KMCI 032353Z 23006KT 10SM FEW060 FEW250 31/22 A2977 RMK AO2 SLP068 T03110222 10328 20294 56012 $
KMCI 032253Z 26005KT 10SM CLR 32/23 A2978 RMK AO2 SLP070 T03170228 $
KMCI 032153Z 22010G20KT 10SM FEW050 BKN130 BKN250 32/23 A2979 RMK AO2 SLP074 T03170228 $
KMCI 032053Z 24010KT 10SM FEW040 SCT130 BKN250 32/22 A2981 RMK AO2 SLP080 T03170222 58018 $
KMCI 031953Z 21012KT 10SM FEW040 FEW100 BKN250 32/23 A2983 RMK AO2 SLP087 T03170228
KMCI 031853Z 21009KT 10SM BKN095 31/23 A2985 RMK AO2 SLP095 T03060228
KMCI 031753Z 22008G15KT 10SM FEW040 SCT100 BKN250 29/22 A2986 RMK AO2 SLP100 T02940222 10306 20228 56007
KMCI 031653Z 28012G16KT 10SM CLR 29/22 A2987 RMK AO2 SLP103 T02940222
KMCI 031553Z 25011KT 10SM FEW085 FEW150 SCT250 28/22 A2987 RMK AO2 SLP103 T02830217
KMCI 031453Z 24010G19KT 10SM CLR 27/22 A2988 RMK AO2 SLP107 T02720217 50002